sensor_id;sensor_type;location;lat;lon;timestamp;P1;durP1;ratioP1;P2;durP2;ratioP2
37945;SDS011;23769;52.478;13.448;2023-02-20T00:00:51;8.82;;;3.65;;
37945;SDS011;23769;52.478;13.448;2023-02-20T00:03:19;10.98;;;4.22;;
37945;SDS011;23769;52.478;13.448;2023-02-20T00:05:46;7.70;;;3.20;;
37945;SDS011;23769;52.478;13.448;2023-02-20T00:08:13;6.68;;;3.03;;
37945;SDS011;23769;52.478;13.448;2023-02-20T00:10:41;10.68;;;3.25;;
37945;SDS011;23769;52.478;13.448;2023-02-20T00:13:09;7.55;;;3.60;;
37945;SDS011;23769;52.478;13.448;2023-02-20T00:15:36;9.48;;;3.25;;
37945;SDS011;23769;52.478;13.448;2023-02-20T00:18:03;8.93;;;3.40;;
37945;SDS011;23769;52.478;13.448;2023-02-20T00:20:31;8.07;;;3.30;;
37945;SDS011;23769;52.478;13.448;2023-02-20T00:23:00;10.02;;;3.85;;
37945;SDS011;23769;52.478;13.448;2023-02-20T00:25:27;6.40;;;3.38;;
37945;SDS011;23769;52.478;13.448;2023-02-20T00:27:54;9.23;;;3.95;;
37945;SDS011;23769;52.478;13.448;2023-02-20T00:30:23;8.55;;;3.20;;
37945;SDS011;23769;52.478;13.448;2023-02-20T00:32:51;8.02;;;4.40;;
37945;SDS011;23769;52.478;13.448;2023-02-20T00:35:19;10.00;;;4.13;;
37945;SDS011;23769;52.478;13.448;2023-02-20T00:37:46;7.93;;;3.67;;
37945;SDS011;23769;52.478;13.448;2023-02-20T00:40:14;7.75;;;3.83;;
37945;SDS011;23769;52.478;13.448;2023-02-20T00:42:42;12.10;;;4.82;;
37945;SDS011;23769;52.478;13.448;2023-02-20T00:45:09;9.00;;;4.20;;
37945;SDS011;23769;52.478;13.448;2023-02-20T00:47:38;10.27;;;4.18;;
37945;SDS011;23769;52.478;13.448;2023-02-20T00:50:06;8.30;;;4.13;;
37945;SDS011;23769;52.478;13.448;2023-02-20T00:52:33;11.77;;;4.28;;
37945;SDS011;23769;52.478;13.448;2023-02-20T00:55:03;12.20;;;4.95;;
37945;SDS011;23769;52.478;13.448;2023-02-20T00:57:30;9.10;;;4.28;;
37945;SDS011;23769;52.478;13.448;2023-02-20T00:59:58;9.43;;;4.53;;
37945;SDS011;23769;52.478;13.448;2023-02-20T01:02:25;9.18;;;4.70;;
37945;SDS011;23769;52.478;13.448;2023-02-20T01:04:53;8.32;;;4.32;;
37945;SDS011;23769;52.478;13.448;2023-02-20T01:07:21;13.27;;;4.43;;
37945;SDS011;23769;52.478;13.448;2023-02-20T01:09:48;9.52;;;4.63;;
37945;SDS011;23769;52.478;13.448;2023-02-20T01:12:15;9.25;;;4.28;;
37945;SDS011;23769;52.478;13.448;2023-02-20T01:14:42;11.48;;;4.95;;
37945;SDS011;23769;52.478;13.448;2023-02-20T01:17:11;10.35;;;4.15;;
37945;SDS011;23769;52.478;13.448;2023-02-20T01:19:38;8.48;;;4.07;;
37945;SDS011;23769;52.478;13.448;2023-02-20T01:22:08;7.47;;;3.83;;
37945;SDS011;23769;52.478;13.448;2023-02-20T01:24:35;9.52;;;4.18;;
37945;SDS011;23769;52.478;13.448;2023-02-20T01:27:02;8.80;;;4.07;;
37945;SDS011;23769;52.478;13.448;2023-02-20T01:29:29;8.38;;;4.15;;
37945;SDS011;23769;52.478;13.448;2023-02-20T01:31:57;6.90;;;4.43;;
37945;SDS011;23769;52.478;13.448;2023-02-20T01:34:24;9.30;;;4.15;;
37945;SDS011;23769;52.478;13.448;2023-02-20T01:36:52;10.45;;;4.18;;
37945;SDS011;23769;52.478;13.448;2023-02-20T01:39:21;7.45;;;4.47;;
37945;SDS011;23769;52.478;13.448;2023-02-20T01:41:49;9.35;;;4.57;;
37945;SDS011;23769;52.478;13.448;2023-02-20T01:44:18;6.95;;;4.43;;
37945;SDS011;23769;52.478;13.448;2023-02-20T01:46:47;10.00;;;4.22;;
37945;SDS011;23769;52.478;13.448;2023-02-20T01:49:18;11.05;;;4.38;;
37945;SDS011;23769;52.478;13.448;2023-02-20T01:51:50;8.23;;;4.57;;
37945;SDS011;23769;52.478;13.448;2023-02-20T01:54:18;9.00;;;4.78;;
37945;SDS011;23769;52.478;13.448;2023-02-20T01:56:49;6.78;;;3.58;;
37945;SDS011;23769;52.478;13.448;2023-02-20T01:59:17;9.10;;;4.20;;
37945;SDS011;23769;52.478;13.448;2023-02-20T17:01:54;12.35;;;7.93;;
37945;SDS011;23769;52.478;13.448;2023-02-20T17:04:21;12.18;;;8.65;;
37945;SDS011;23769;52.478;13.448;2023-02-20T17:06:48;12.68;;;7.47;;
37945;SDS011;23769;52.478;13.448;2023-02-20T17:09:16;14.05;;;7.85;;
37945;SDS011;23769;52.478;13.448;2023-02-20T17:11:43;13.57;;;8.13;;
37945;SDS011;23769;52.478;13.448;2023-02-20T17:14:10;11.02;;;7.95;;
37945;SDS011;23769;52.478;13.448;2023-02-20T17:16:38;15.60;;;7.20;;
37945;SDS011;23769;52.478;13.448;2023-02-20T17:19:06;12.52;;;7.55;;
37945;SDS011;23769;52.478;13.448;2023-02-20T17:21:35;12.13;;;7.88;;
37945;SDS011;23769;52.478;13.448;2023-02-20T17:24:02;13.88;;;9.13;;
37945;SDS011;23769;52.478;13.448;2023-02-20T17:26:29;14.27;;;8.02;;
37945;SDS011;23769;52.478;13.448;2023-02-20T17:29:00;12.82;;;7.70;;
37945;SDS011;23769;52.478;13.448;2023-02-20T17:31:27;12.18;;;7.75;;
37945;SDS011;23769;52.478;13.448;2023-02-20T17:33:55;12.10;;;7.85;;
37945;SDS011;23769;52.478;13.448;2023-02-20T17:36:23;11.90;;;7.68;;
37945;SDS011;23769;52.478;13.448;2023-02-20T17:38:51;12.07;;;7.97;;
37945;SDS011;23769;52.478;13.448;2023-02-20T17:41:18;12.18;;;7.65;;
37945;SDS011;23769;52.478;13.448;2023-02-20T17:43:46;12.27;;;7.43;;
37945;SDS011;23769;52.478;13.448;2023-02-20T17:46:15;12.70;;;7.47;;
37945;SDS011;23769;52.478;13.448;2023-02-20T17:48:42;10.68;;;7.50;;
37945;SDS011;23769;52.478;13.448;2023-02-20T17:51:11;12.35;;;8.20;;
37945;SDS011;23769;52.478;13.448;2023-02-20T17:53:42;12.57;;;7.95;;
37945;SDS011;23769;52.478;13.448;2023-02-20T17:56:11;12.80;;;8.20;;
37945;SDS011;23769;52.478;13.448;2023-02-20T17:58:38;13.75;;;7.90;;
37945;SDS011;23769;52.478;13.448;2023-02-20T18:01:05;12.63;;;6.97;;
37945;SDS011;23769;52.478;13.448;2023-02-20T18:03:33;10.43;;;7.07;;
37945;SDS011;23769;52.478;13.448;2023-02-20T18:06:00;10.60;;;7.78;;
37945;SDS011;23769;52.478;13.448;2023-02-20T18:08:27;12.38;;;7.95;;
37945;SDS011;23769;52.478;13.448;2023-02-20T18:10:56;12.10;;;8.10;;
37945;SDS011;23769;52.478;13.448;2023-02-20T18:13:23;12.15;;;8.10;;
37945;SDS011;23769;52.478;13.448;2023-02-20T18:15:50;15.70;;;8.48;;
37945;SDS011;23769;52.478;13.448;2023-02-20T18:18:18;13.90;;;8.18;;
37945;SDS011;23769;52.478;13.448;2023-02-20T18:20:46;12.57;;;9.40;;
37945;SDS011;23769;52.478;13.448;2023-02-20T18:23:13;13.40;;;8.90;;
37945;SDS011;23769;52.478;13.448;2023-02-20T18:25:40;13.82;;;8.85;;
37945;SDS011;23769;52.478;13.448;2023-02-20T18:28:09;14.13;;;9.23;;
37945;SDS011;23769;52.478;13.448;2023-02-20T18:30:36;14.98;;;10.15;;
37945;SDS011;23769;52.478;13.448;2023-02-20T18:33:04;14.60;;;9.60;;
37945;SDS011;23769;52.478;13.448;2023-02-20T18:35:32;15.43;;;9.38;;
37945;SDS011;23769;52.478;13.448;2023-02-20T18:37:59;15.75;;;9.57;;
37945;SDS011;23769;52.478;13.448;2023-02-20T18:40:27;13.32;;;9.07;;
37945;SDS011;23769;52.478;13.448;2023-02-20T18:42:56;17.23;;;10.32;;
37945;SDS011;23769;52.478;13.448;2023-02-20T18:45:24;18.33;;;10.77;;
37945;SDS011;23769;52.478;13.448;2023-02-20T18:47:51;16.02;;;10.48;;
37945;SDS011;23769;52.478;13.448;2023-02-20T18:50:19;16.67;;;10.65;;
37945;SDS011;23769;52.478;13.448;2023-02-20T18:52:47;16.20;;;10.60;;
37945;SDS011;23769;52.478;13.448;2023-02-20T18:55:15;16.55;;;10.95;;
37945;SDS011;23769;52.478;13.448;2023-02-20T18:57:46;16.67;;;10.80;;
37945;SDS011;23769;52.478;13.448;2023-02-20T19:00:16;15.35;;;10.05;;
37945;SDS011;23769;52.478;13.448;2023-02-20T19:02:45;14.50;;;10.25;;
37945;SDS011;23769;52.478;13.448;2023-02-20T19:05:12;18.02;;;12.68;;
37945;SDS011;23769;52.478;13.448;2023-02-20T19:07:40;17.45;;;11.13;;
37945;SDS011;23769;52.478;13.448;2023-02-20T19:10:07;17.25;;;10.85;;
37945;SDS011;23769;52.478;13.448;2023-02-20T19:12:35;18.17;;;12.20;;
37945;SDS011;23769;52.478;13.448;2023-02-20T19:15:02;18.15;;;12.57;;
37945;SDS011;23769;52.478;13.448;2023-02-20T19:17:30;15.93;;;11.52;;
37945;SDS011;23769;52.478;13.448;2023-02-20T19:19:59;16.40;;;11.48;;
37945;SDS011;23769;52.478;13.448;2023-02-20T19:22:26;17.45;;;11.80;;
37945;SDS011;23769;52.478;13.448;2023-02-20T19:24:54;18.65;;;13.32;;
37945;SDS011;23769;52.478;13.448;2023-02-20T19:27:22;19.13;;;12.10;;
37945;SDS011;23769;52.478;13.448;2023-02-20T19:29:49;17.48;;;11.82;;
37945;SDS011;23769;52.478;13.448;2023-02-20T19:32:17;20.75;;;14.80;;
37945;SDS011;23769;52.478;13.448;2023-02-20T19:34:44;17.33;;;12.20;;
37945;SDS011;23769;52.478;13.448;2023-02-20T19:37:13;16.15;;;11.52;;
37945;SDS011;23769;52.478;13.448;2023-02-20T19:39:41;16.27;;;11.48;;
37945;SDS011;23769;52.478;13.448;2023-02-20T19:42:08;18.58;;;12.68;;
37945;SDS011;23769;52.478;13.448;2023-02-20T19:44:36;14.93;;;10.98;;
37945;SDS011;23769;52.478;13.448;2023-02-20T19:47:04;15.00;;;11.18;;
37945;SDS011;23769;52.478;13.448;2023-02-20T19:49:31;16.45;;;11.50;;
37945;SDS011;23769;52.478;13.448;2023-02-20T19:51:58;13.35;;;9.63;;
37945;SDS011;23769;52.478;13.448;2023-02-20T19:54:27;14.18;;;9.82;;
37945;SDS011;23769;52.478;13.448;2023-02-20T19:56:56;16.15;;;10.57;;
37945;SDS011;23769;52.478;13.448;2023-02-20T19:59:25;13.52;;;10.20;;
37945;SDS011;23769;52.478;13.448;2023-02-20T20:01:52;13.40;;;9.88;;
37945;SDS011;23769;52.478;13.448;2023-02-20T20:04:21;13.88;;;9.73;;
37945;SDS011;23769;52.478;13.448;2023-02-20T20:06:49;12.30;;;9.15;;
37945;SDS011;23769;52.478;13.448;2023-02-20T20:09:17;15.95;;;10.23;;
37945;SDS011;23769;52.478;13.448;2023-02-20T20:11:46;18.17;;;10.68;;
37945;SDS011;23769;52.478;13.448;2023-02-20T20:14:13;15.10;;;9.75;;
37945;SDS011;23769;52.478;13.448;2023-02-20T20:16:40;13.88;;;9.30;;
37945;SDS011;23769;52.478;13.448;2023-02-20T20:19:08;15.98;;;11.15;;
37945;SDS011;23769;52.478;13.448;2023-02-20T20:21:35;11.68;;;8.10;;
37945;SDS011;23769;52.478;13.448;2023-02-20T20:24:03;11.50;;;8.93;;
37945;SDS011;23769;52.478;13.448;2023-02-20T20:26:32;10.40;;;7.72;;
37945;SDS011;23769;52.478;13.448;2023-02-20T20:29:01;11.93;;;8.30;;
37945;SDS011;23769;52.478;13.448;2023-02-20T20:31:31;12.07;;;8.52;;
37945;SDS011;23769;52.478;13.448;2023-02-20T20:33:59;10.48;;;7.30;;
37945;SDS011;23769;52.478;13.448;2023-02-20T20:36:26;9.45;;;7.05;;
37945;SDS011;23769;52.478;13.448;2023-02-20T20:38:53;9.38;;;6.65;;
37945;SDS011;23769;52.478;13.448;2023-02-20T20:41:21;10.10;;;7.57;;
37945;SDS011;23769;52.478;13.448;2023-02-20T20:43:48;10.27;;;7.40;;
37945;SDS011;23769;52.478;13.448;2023-02-20T20:46:17;10.88;;;7.68;;
37945;SDS011;23769;52.478;13.448;2023-02-20T20:48:44;10.02;;;6.88;;
37945;SDS011;23769;52.478;13.448;2023-02-20T20:51:11;8.38;;;6.65;;
37945;SDS011;23769;52.478;13.448;2023-02-20T20:53:40;9.45;;;6.85;;
37945;SDS011;23769;52.478;13.448;2023-02-20T20:56:07;10.57;;;7.00;;
37945;SDS011;23769;52.478;13.448;2023-02-20T20:58:35;11.18;;;6.88;;
37945;SDS011;23769;52.478;13.448;2023-02-20T21:01:02;8.25;;;6.53;;
37945;SDS011;23769;52.478;13.448;2023-02-20T21:03:31;9.60;;;6.85;;
37945;SDS011;23769;52.478;13.448;2023-02-20T21:05:58;8.48;;;6.65;;
37945;SDS011;23769;52.478;13.448;2023-02-20T21:08:25;13.50;;;8.05;;
37945;SDS011;23769;52.478;13.448;2023-02-20T21:10:53;10.55;;;6.40;;
37945;SDS011;23769;52.478;13.448;2023-02-20T21:13:21;11.07;;;7.28;;
37945;SDS011;23769;52.478;13.448;2023-02-20T21:15:48;11.90;;;7.05;;
37945;SDS011;23769;52.478;13.448;2023-02-20T21:18:15;11.48;;;7.97;;
37945;SDS011;23769;52.478;13.448;2023-02-20T21:20:44;11.43;;;5.97;;
37945;SDS011;23769;52.478;13.448;2023-02-20T21:23:11;11.02;;;6.95;;
37945;SDS011;23769;52.478;13.448;2023-02-20T21:25:38;8.18;;;5.95;;
37945;SDS011;23769;52.478;13.448;2023-02-20T21:28:06;9.18;;;6.53;;
37945;SDS011;23769;52.478;13.448;2023-02-20T21:30:33;8.98;;;5.97;;
37945;SDS011;23769;52.478;13.448;2023-02-20T21:33:00;8.57;;;6.30;;
37945;SDS011;23769;52.478;13.448;2023-02-20T21:35:28;10.00;;;6.60;;
37945;SDS011;23769;52.478;13.448;2023-02-20T21:37:56;7.68;;;6.13;;
37945;SDS011;23769;52.478;13.448;2023-02-20T21:40:24;9.98;;;6.47;;
37945;SDS011;23769;52.478;13.448;2023-02-20T21:42:51;8.35;;;5.78;;
37945;SDS011;23769;52.478;13.448;2023-02-20T21:45:36;7.40;;;5.97;;
37945;SDS011;23769;52.478;13.448;2023-02-20T21:48:03;8.70;;;5.85;;
37945;SDS011;23769;52.478;13.448;2023-02-20T21:50:31;7.03;;;5.45;;
37945;SDS011;23769;52.478;13.448;2023-02-20T21:52:59;9.10;;;6.70;;
37945;SDS011;23769;52.478;13.448;2023-02-20T21:55:27;9.68;;;6.35;;
37945;SDS011;23769;52.478;13.448;2023-02-20T21:57:54;10.02;;;6.00;;
37945;SDS011;23769;52.478;13.448;2023-02-20T22:00:26;10.73;;;6.60;;
37945;SDS011;23769;52.478;13.448;2023-02-20T22:02:52;8.65;;;5.93;;
37945;SDS011;23769;52.478;13.448;2023-02-20T22:05:18;7.82;;;5.55;;
37945;SDS011;23769;52.478;13.448;2023-02-20T22:07:45;8.20;;;6.15;;
37945;SDS011;23769;52.478;13.448;2023-02-20T22:10:31;8.43;;;5.45;;
37945;SDS011;23769;52.478;13.448;2023-02-20T22:13:16;8.68;;;6.40;;
37945;SDS011;23769;52.478;13.448;2023-02-20T22:16:00;8.48;;;6.07;;
37945;SDS011;23769;52.478;13.448;2023-02-20T22:18:45;10.02;;;6.20;;
37945;SDS011;23769;52.478;13.448;2023-02-20T22:21:30;7.30;;;5.38;;
37945;SDS011;23769;52.478;13.448;2023-02-20T22:24:15;8.18;;;5.90;;
37945;SDS011;23769;52.478;13.448;2023-02-20T22:27:02;8.18;;;6.25;;
37945;SDS011;23769;52.478;13.448;2023-02-20T22:29:47;7.93;;;5.80;;
37945;SDS011;23769;52.478;13.448;2023-02-20T22:32:31;6.88;;;5.20;;
37945;SDS011;23769;52.478;13.448;2023-02-20T22:35:16;8.15;;;5.75;;
37945;SDS011;23769;52.478;13.448;2023-02-20T22:38:01;8.02;;;5.57;;
37945;SDS011;23769;52.478;13.448;2023-02-20T22:40:46;8.25;;;5.72;;
37945;SDS011;23769;52.478;13.448;2023-02-20T22:43:32;8.85;;;5.28;;
37945;SDS011;23769;52.478;13.448;2023-02-20T22:46:18;7.25;;;5.88;;
37945;SDS011;23769;52.478;13.448;2023-02-20T22:49:03;7.97;;;5.18;;
37945;SDS011;23769;52.478;13.448;2023-02-20T22:51:48;8.18;;;5.13;;
37945;SDS011;23769;52.478;13.448;2023-02-20T22:54:33;8.20;;;5.18;;
37945;SDS011;23769;52.478;13.448;2023-02-20T22:57:18;7.10;;;5.30;;
37945;SDS011;23769;52.478;13.448;2023-02-20T23:00:05;7.72;;;5.55;;
37945;SDS011;23769;52.478;13.448;2023-02-20T23:02:50;6.85;;;4.93;;
37945;SDS011;23769;52.478;13.448;2023-02-20T23:05:34;8.10;;;5.47;;
37945;SDS011;23769;52.478;13.448;2023-02-20T23:08:19;7.22;;;5.43;;
37945;SDS011;23769;52.478;13.448;2023-02-20T23:11:04;9.48;;;6.03;;
37945;SDS011;23769;52.478;13.448;2023-02-20T23:13:49;6.65;;;5.10;;
37945;SDS011;23769;52.478;13.448;2023-02-20T23:16:36;7.32;;;5.40;;
37945;SDS011;23769;52.478;13.448;2023-02-20T23:19:21;7.15;;;5.80;;
37945;SDS011;23769;52.478;13.448;2023-02-20T23:22:05;7.20;;;5.57;;
37945;SDS011;23769;52.478;13.448;2023-02-20T23:24:50;7.30;;;5.10;;
37945;SDS011;23769;52.478;13.448;2023-02-20T23:27:35;7.18;;;5.53;;
37945;SDS011;23769;52.478;13.448;2023-02-20T23:30:19;8.82;;;5.50;;
37945;SDS011;23769;52.478;13.448;2023-02-20T23:33:05;7.68;;;4.85;;
37945;SDS011;23769;52.478;13.448;2023-02-20T23:35:50;7.38;;;5.55;;
37945;SDS011;23769;52.478;13.448;2023-02-20T23:38:34;7.75;;;5.28;;
37945;SDS011;23769;52.478;13.448;2023-02-20T23:41:19;7.20;;;4.80;;
37945;SDS011;23769;52.478;13.448;2023-02-20T23:44:04;7.30;;;5.15;;
37945;SDS011;23769;52.478;13.448;2023-02-20T23:46:49;7.88;;;5.70;;
37945;SDS011;23769;52.478;13.448;2023-02-20T23:49:35;7.57;;;5.50;;
37945;SDS011;23769;52.478;13.448;2023-02-20T23:52:20;8.00;;;5.75;;
37945;SDS011;23769;52.478;13.448;2023-02-20T23:55:05;7.88;;;6.07;;
37945;SDS011;23769;52.478;13.448;2023-02-20T23:57:50;8.52;;;6.03;;
